createdAt,value
2019-04-21T00:01:54.554Z,71.50
2019-04-21T00:04:33.256Z,71.30
2019-04-21T00:07:13.472Z,71.60
2019-04-21T00:09:45.452Z,72.70
2019-04-21T00:12:15.295Z,72.60
2019-04-21T00:14:35.801Z,74.30
2019-04-21T00:17:00.641Z,73.50
2019-04-21T00:19:29.841Z,74.20
2019-04-21T00:22:05.869Z,75.30
2019-04-21T00:24:41.318Z,76.00
2019-04-21T00:27:10.942Z,76.80
2019-04-21T00:29:45.676Z,77.70
2019-04-21T00:32:10.507Z,78.30
2019-04-21T00:34:25.843Z,79.00
2019-04-21T00:37:05.888Z,79.90
2019-04-21T00:42:13.984Z,80.60
2019-04-21T00:44:36.678Z,80.90
2019-04-21T00:47:08.498Z,81.10
2019-04-21T00:49:47.878Z,81.80
2019-04-21T00:52:46.234Z,83.60
2019-04-21T00:55:23.065Z,84.00
2019-04-21T00:57:47.695Z,83.50
2019-04-21T01:00:11.680Z,83.20
2019-04-21T01:02:47.244Z,83.70
2019-04-21T01:05:15.230Z,82.50
2019-04-21T01:07:42.441Z,81.90
2019-04-21T01:10:05.257Z,82.00
2019-04-21T01:12:41.783Z,81.50
2019-04-21T01:15:10.925Z,81.80
2019-04-21T01:17:40.821Z,82.30
2019-04-21T01:20:01.760Z,82.80
2019-04-21T01:22:19.356Z,84.20
2019-04-21T01:24:57.862Z,84.60
2019-04-21T01:27:39.701Z,84.90
2019-04-21T01:30:14.751Z,84.70
2019-04-21T01:32:42.696Z,85.40
2019-04-21T01:35:08.884Z,85.60
2019-04-21T01:37:43.785Z,85.80
2019-04-21T01:40:18.399Z,86.20
2019-04-21T01:42:43.605Z,86.10
2019-04-21T01:45:11.393Z,86.40
2019-04-21T01:47:36.193Z,86.90
2019-04-21T01:49:59.051Z,87.70
2019-04-21T01:52:47.329Z,88.50
2019-04-21T01:55:30.616Z,88.60
2019-04-21T01:58:00.405Z,88.80
2019-04-21T02:00:41.185Z,88.80
2019-04-21T02:03:26.289Z,89.10
2019-04-21T02:05:46.770Z,89.40
2019-04-21T02:08:10.874Z,89.80
2019-04-21T02:10:51.110Z,89.90
2019-04-21T02:13:09.009Z,90.00
2019-04-21T02:15:41.984Z,90.00
2019-04-21T02:18:12.079Z,89.10
2019-04-21T02:20:32.760Z,89.00
2019-04-21T02:23:33.482Z,89.10
2019-04-21T02:25:44.663Z,89.20
2019-04-21T02:28:21.167Z,89.20
2019-04-21T02:30:54.465Z,89.40
2019-04-21T02:36:02.739Z,88.40
2019-04-21T02:38:34.306Z,89.30
2019-04-21T02:40:51.452Z,89.50
2019-04-21T02:43:38.881Z,90.10
2019-04-21T02:45:56.152Z,90.20
2019-04-21T02:53:37.421Z,90.00
2019-04-21T02:55:50.820Z,90.00
2019-04-21T03:00:54.897Z,90.50
2019-04-21T03:03:37.786Z,90.80
2019-04-21T03:06:12.809Z,90.90
2019-04-21T03:08:56.669Z,90.80
2019-04-21T03:11:17.199Z,90.80
2019-04-21T03:13:47.169Z,90.90
2019-04-21T03:16:17.106Z,91.20
2019-04-21T03:23:52.208Z,92.10
2019-04-21T03:26:19.872Z,91.90
2019-04-21T03:28:39.758Z,92.00
2019-04-21T03:34:18.448Z,91.90
2019-04-21T03:41:10.712Z,91.70
2019-04-21T03:43:42.577Z,91.80
2019-04-21T03:46:05.921Z,92.20
2019-04-21T03:48:40.676Z,92.30
2019-04-21T03:51:21.429Z,92.40
2019-04-21T03:53:41.424Z,92.20
2019-04-21T03:56:14.797Z,92.20
2019-04-21T04:01:23.964Z,91.80
2019-04-21T04:07:04.444Z,91.80
2019-04-21T04:09:19.524Z,92.00
2019-04-21T04:14:33.422Z,91.30
2019-04-21T04:17:04.826Z,91.40
2019-04-21T04:19:45.390Z,91.50
2019-04-21T04:24:39.148Z,90.90
2019-04-21T04:27:09.528Z,90.70
2019-04-21T04:34:41.189Z,91.40
2019-04-21T04:37:17.400Z,91.40
2019-04-21T04:42:31.341Z,91.30
2019-04-21T04:47:20.620Z,91.20
2019-04-21T04:49:49.616Z,91.30
2019-04-21T04:55:01.780Z,91.40
2019-04-21T05:02:37.743Z,91.30
2019-04-21T05:05:19.544Z,91.30
2019-04-21T05:07:34.082Z,91.10
2019-04-21T05:09:59.774Z,91.20
2019-04-21T05:12:32.525Z,91.30
2019-04-21T05:14:59.365Z,91.20
2019-04-21T05:17:41.463Z,91.40
2019-04-21T05:20:08.603Z,91.60
2019-04-21T05:24:49.395Z,91.70
2019-04-21T05:30:17.402Z,91.30
2019-04-21T05:32:55.531Z,91.00
2019-04-21T05:35:40.529Z,90.80
2019-04-21T05:38:13.982Z,90.70
2019-04-21T05:40:31.887Z,90.60
2019-04-21T05:43:07.810Z,90.70
2019-04-21T05:45:42.252Z,90.50
2019-04-21T05:50:44.131Z,90.20
2019-04-21T05:53:24.311Z,90.30
2019-04-21T05:55:49.231Z,90.60
2019-04-21T05:58:14.480Z,90.30
2019-04-21T06:03:30.645Z,89.90
2019-04-21T06:06:08.690Z,90.00
2019-04-21T06:08:30.859Z,90.10
2019-04-21T06:11:05.132Z,90.00
2019-04-21T06:13:41.024Z,90.00
2019-04-21T06:16:05.969Z,89.70
2019-04-21T06:18:35.345Z,88.90
2019-04-21T06:21:02.103Z,88.20
2019-04-21T06:23:30.516Z,88.40
2019-04-21T06:28:33.729Z,87.20
2019-04-21T06:31:17.950Z,86.90
2019-04-21T06:33:36.365Z,85.90
2019-04-21T06:36:24.024Z,85.90
2019-04-21T06:41:32.726Z,86.80
2019-04-21T06:44:03.028Z,87.10
2019-04-21T06:46:33.552Z,87.90
2019-04-21T06:48:55.792Z,87.90
2019-04-21T06:51:27.328Z,87.50
2019-04-21T06:53:59.255Z,86.50
2019-04-21T06:56:30.941Z,85.30
2019-04-21T06:58:50.463Z,84.70
2019-04-21T07:01:26.472Z,84.30
2019-04-21T07:03:58.958Z,81.90
2019-04-21T07:06:23.846Z,77.70
2019-04-21T07:09:04.614Z,72.90
2019-04-21T07:11:23.448Z,65.80
2019-04-21T07:14:01.759Z,64.70
2019-04-21T07:16:25.422Z,59.30
2019-04-21T07:19:00.014Z,58.00
2019-04-21T07:21:30.106Z,56.20
2019-04-21T07:23:59.309Z,53.20
2019-04-21T07:26:25.612Z,48.20
2019-04-21T07:29:01.876Z,44.60
2019-04-21T07:31:29.058Z,45.20
2019-04-21T07:34:01.985Z,45.60
2019-04-21T07:36:30.914Z,43.20
2019-04-21T07:38:49.782Z,43.30
2019-04-21T07:41:21.773Z,44.00
2019-04-21T07:43:55.360Z,43.20
2019-04-21T07:46:25.618Z,42.80
2019-04-21T07:49:01.815Z,43.00
2019-04-21T07:51:47.740Z,40.70
2019-04-21T07:54:17.857Z,38.60
2019-04-21T07:56:32.434Z,39.60
2019-04-21T07:59:11.322Z,39.90
2019-04-21T08:01:43.880Z,39.60
2019-04-21T08:06:47.742Z,38.80
2019-04-21T08:09:12.367Z,38.30
2019-04-21T08:11:43.075Z,37.00
2019-04-21T08:14:19.211Z,37.70
2019-04-21T08:16:55.529Z,37.50
2019-04-21T08:19:18.660Z,38.40
2019-04-21T08:21:52.685Z,37.70
2019-04-21T08:24:18.159Z,37.00
2019-04-21T08:27:07.895Z,35.90
2019-04-21T08:29:25.740Z,35.50
2019-04-21T08:32:00.881Z,35.30
2019-04-21T08:34:22.628Z,34.80
2019-04-21T08:36:52.314Z,34.40
2019-04-21T08:39:21.217Z,34.80
2019-04-21T08:41:51.899Z,33.80
2019-04-21T08:44:25.788Z,34.50
2019-04-21T08:46:55.156Z,34.10
2019-04-21T08:49:20.661Z,34.00
2019-04-21T08:51:57.300Z,33.10
2019-04-21T08:54:23.113Z,33.40
2019-04-21T08:56:56.868Z,33.00
2019-04-21T08:59:36.540Z,32.60
2019-04-21T09:02:17.533Z,33.00
2019-04-21T09:04:41.271Z,33.00
2019-04-21T09:07:12.994Z,32.10
2019-04-21T09:12:10.357Z,30.60
2019-04-21T09:14:41.911Z,29.60
2019-04-21T09:17:08.252Z,29.20
2019-04-21T09:19:54.472Z,29.80
2019-04-21T09:22:12.893Z,30.40
2019-04-21T09:24:46.447Z,30.00
2019-04-21T09:27:08.395Z,29.20
2019-04-21T09:29:30.967Z,29.10
2019-04-21T09:31:57.301Z,29.50
2019-04-21T09:34:35.778Z,30.10
2019-04-21T09:37:14.240Z,29.60
2019-04-21T09:39:29.309Z,28.90
2019-04-21T09:41:59.138Z,29.10
2019-04-21T09:44:31.534Z,29.90
2019-04-21T09:47:01.261Z,29.40
2019-04-21T09:49:30.914Z,28.90
2019-04-21T09:51:57.444Z,29.10
2019-04-21T09:54:29.848Z,28.60
2019-04-21T09:57:02.919Z,27.80
2019-04-21T09:59:32.087Z,28.40
2019-04-21T10:02:06.540Z,28.40
2019-04-21T10:04:26.749Z,28.20
2019-04-21T10:06:56.264Z,28.10
2019-04-21T10:09:24.763Z,29.10
2019-04-21T10:11:53.158Z,28.00
2019-04-21T10:14:22.056Z,27.10
2019-04-21T10:16:58.087Z,27.80
2019-04-21T10:19:25.499Z,27.00
2019-04-21T10:21:54.267Z,26.30
2019-04-21T10:24:22.847Z,26.60
2019-04-21T10:26:51.719Z,26.30
2019-04-21T10:29:24.229Z,26.70
2019-04-21T10:31:50.557Z,26.60
2019-04-21T10:34:19.187Z,26.70
2019-04-21T10:36:48.975Z,25.50
2019-04-21T10:39:17.812Z,23.80
2019-04-21T10:41:47.623Z,24.00
2019-04-21T10:44:17.017Z,24.40
2019-04-21T10:46:47.445Z,24.60
2019-04-21T10:49:16.914Z,24.60
2019-04-21T10:51:46.725Z,24.30
2019-04-21T10:54:15.849Z,24.80
2019-04-21T10:56:45.834Z,24.60
2019-04-21T10:59:14.524Z,24.30
2019-04-21T11:01:43.062Z,24.00
2019-04-21T11:04:22.425Z,23.70
2019-04-21T11:06:46.774Z,23.60
2019-04-21T11:09:15.885Z,23.20
2019-04-21T11:11:46.855Z,23.30
2019-04-21T11:14:15.477Z,23.70
2019-04-21T11:16:47.236Z,22.80
2019-04-21T11:19:14.135Z,22.10
2019-04-21T11:21:42.917Z,22.40
2019-04-21T11:24:12.301Z,21.80
2019-04-21T11:26:42.070Z,21.30
2019-04-21T11:29:10.848Z,22.00
2019-04-21T11:31:39.204Z,22.40
2019-04-21T11:34:07.602Z,23.10
2019-04-21T11:36:37.391Z,23.10
2019-04-21T11:39:24.658Z,22.60
2019-04-21T11:41:48.325Z,22.20
2019-04-21T11:44:16.707Z,21.00
2019-04-21T11:46:46.577Z,21.60
2019-04-21T11:49:15.834Z,20.80
2019-04-21T11:51:44.997Z,20.90
2019-04-21T11:54:14.942Z,20.60
2019-04-21T11:56:43.567Z,21.30
2019-04-21T11:59:12.178Z,19.60
2019-04-21T12:01:41.427Z,20.30
2019-04-21T12:04:09.989Z,20.50
2019-04-21T12:06:43.710Z,20.50
2019-04-21T12:09:10.110Z,19.50
2019-04-21T12:11:39.427Z,20.10
2019-04-21T12:14:08.049Z,20.40
2019-04-21T12:16:37.029Z,19.80
2019-04-21T12:19:07.069Z,19.60
2019-04-21T12:21:49.202Z,19.60
2019-04-21T12:24:07.024Z,19.80
2019-04-21T12:26:35.957Z,19.60
2019-04-21T12:29:05.898Z,19.90
2019-04-21T12:34:21.917Z,20.30
2019-04-21T12:36:50.770Z,20.00
2019-04-21T12:39:20.761Z,19.30
2019-04-21T12:41:50.760Z,19.10
2019-04-21T12:44:20.480Z,18.50
2019-04-21T12:46:49.827Z,18.50
2019-04-21T12:49:18.392Z,18.30
2019-04-21T12:51:48.027Z,19.30
2019-04-21T12:54:17.540Z,19.20
2019-04-21T12:56:47.545Z,19.60
2019-04-21T12:59:16.948Z,19.80
2019-04-21T13:01:45.680Z,19.50
2019-04-21T13:04:14.071Z,19.30
2019-04-21T13:06:43.549Z,19.20
2019-04-21T13:09:14.982Z,18.80
2019-04-21T13:11:43.427Z,19.60
2019-04-21T13:14:11.867Z,19.50
2019-04-21T13:16:41.285Z,19.80
2019-04-21T13:19:10.187Z,19.80
2019-04-21T13:21:40.338Z,18.70
2019-04-21T13:24:08.952Z,18.20
2019-04-21T13:26:45.547Z,19.00
2019-04-21T13:29:08.041Z,18.60
2019-04-21T13:31:36.636Z,18.10
2019-04-21T13:34:06.138Z,18.70
2019-04-21T13:36:35.890Z,19.00
2019-04-21T13:39:38.209Z,19.80
2019-04-21T13:41:53.315Z,18.90
2019-04-21T13:44:13.477Z,19.10
2019-04-21T13:46:43.091Z,19.60
2019-04-21T13:49:11.645Z,19.00
2019-04-21T13:51:41.630Z,18.00
2019-04-21T13:54:11.466Z,18.20
2019-04-21T13:56:40.607Z,18.40
2019-04-21T13:59:10.471Z,18.90
2019-04-21T14:01:39.578Z,19.40
2019-04-21T14:04:09.412Z,19.30
2019-04-21T14:06:38.409Z,19.50
2019-04-21T14:09:09.904Z,19.40
2019-04-21T14:11:38.359Z,19.30
2019-04-21T14:14:08.151Z,18.70
2019-04-21T14:16:38.089Z,18.80
2019-04-21T14:19:07.594Z,18.50
2019-04-21T14:21:37.079Z,18.70
2019-04-21T14:24:06.698Z,18.90
2019-04-21T14:26:36.238Z,19.50
2019-04-21T14:29:05.822Z,19.00
2019-04-21T14:31:34.618Z,18.40
2019-04-21T14:34:03.896Z,18.50
2019-04-21T14:36:32.720Z,18.50
2019-04-21T14:39:02.738Z,18.70
2019-04-21T14:41:32.495Z,18.80
2019-04-21T14:44:00.920Z,19.80
2019-04-21T14:46:31.258Z,18.20
2019-04-21T14:49:06.917Z,18.50
2019-04-21T14:51:49.334Z,19.50
2019-04-21T14:54:34.364Z,19.30
2019-04-21T14:57:03.299Z,18.40
2019-04-21T14:59:33.115Z,17.70
2019-04-21T15:02:02.189Z,18.20
2019-04-21T15:04:31.549Z,17.70
2019-04-21T15:07:01.212Z,17.80
2019-04-21T15:09:29.778Z,19.10
2019-04-21T15:12:00.252Z,19.00
2019-04-21T15:14:29.788Z,19.10
2019-04-21T15:16:58.708Z,19.00
2019-04-21T15:19:28.660Z,19.10
2019-04-21T15:21:58.398Z,18.80
2019-04-21T15:24:27.054Z,19.20
2019-04-21T15:26:56.757Z,19.50
2019-04-21T15:29:26.649Z,20.00
2019-04-21T15:31:56.696Z,19.60
2019-04-21T15:34:27.143Z,19.70
2019-04-21T15:36:55.589Z,18.80
2019-04-21T15:39:25.623Z,18.60
2019-04-21T15:41:54.553Z,19.10
2019-04-21T15:44:23.116Z,18.10
2019-04-21T15:46:52.106Z,18.30
2019-04-21T15:49:23.103Z,18.00
2019-04-21T15:51:51.894Z,18.10
2019-04-21T15:54:20.639Z,19.00
2019-04-21T15:56:51.277Z,18.50
2019-04-21T15:59:22.196Z,18.80
2019-04-21T16:01:52.620Z,17.50
2019-04-21T16:04:21.059Z,17.20
2019-04-21T16:06:49.898Z,17.30
2019-04-21T16:09:21.617Z,17.40
2019-04-21T16:11:49.692Z,17.40
2019-04-21T16:14:18.698Z,17.60
2019-04-21T16:16:47.495Z,17.70
2019-04-21T16:19:16.451Z,17.90
2019-04-21T16:21:46.498Z,18.60
2019-04-21T16:24:16.420Z,18.70
2019-04-21T16:26:46.702Z,18.50
2019-04-21T16:29:15.476Z,17.90
2019-04-21T16:31:43.919Z,17.20
2019-04-21T16:34:13.641Z,17.50
2019-04-21T16:36:43.433Z,18.40
2019-04-21T16:39:13.194Z,17.80
2019-04-21T16:41:42.537Z,18.60
2019-04-21T16:44:11.311Z,18.30
2019-04-21T16:46:41.183Z,18.10
2019-04-21T16:49:09.744Z,17.80
2019-04-21T16:51:38.117Z,18.50
2019-04-21T16:54:08.298Z,18.90
2019-04-21T16:56:39.609Z,18.40
2019-04-21T16:59:10.550Z,18.80
2019-04-21T17:01:40.531Z,19.00
2019-04-21T17:04:10.642Z,19.60
2019-04-21T17:06:39.105Z,19.10
2019-04-21T17:09:08.626Z,19.90
2019-04-21T17:11:39.232Z,19.30
2019-04-21T17:14:24.764Z,20.00
2019-04-21T17:16:56.318Z,20.70
2019-04-21T17:19:15.909Z,20.70
2019-04-21T17:21:37.686Z,20.80
2019-04-21T17:24:06.458Z,21.20
2019-04-21T17:26:39.028Z,21.50
2019-04-21T17:29:05.091Z,21.80
2019-04-21T17:31:34.032Z,21.60
2019-04-21T17:34:11.562Z,21.50
2019-04-21T17:36:33.132Z,22.10
2019-04-21T17:39:02.233Z,22.40
2019-04-21T17:41:40.937Z,22.40
2019-04-21T17:44:02.430Z,22.20
2019-04-21T17:46:43.127Z,22.50
2019-04-21T17:49:01.325Z,23.00
2019-04-21T17:51:51.769Z,23.20
2019-04-21T17:54:24.527Z,23.60
2019-04-21T17:57:15.311Z,23.80
2019-04-21T17:59:45.036Z,23.90
2019-04-21T18:02:05.133Z,25.00
2019-04-21T18:04:34.799Z,24.80
2019-04-21T18:07:04.867Z,24.90
2019-04-21T18:09:51.737Z,25.30
2019-04-21T18:12:12.307Z,25.50
2019-04-21T18:14:22.601Z,25.90
2019-04-21T18:16:53.166Z,26.40
2019-04-21T18:19:26.753Z,26.80
2019-04-21T18:22:02.088Z,27.30
2019-04-21T18:24:38.962Z,27.90
2019-04-21T18:27:05.667Z,28.50
2019-04-21T18:29:33.674Z,28.90
2019-04-21T18:32:02.829Z,29.40
2019-04-21T18:34:44.280Z,30.00
2019-04-21T18:37:18.603Z,31.10
2019-04-21T18:39:52.671Z,31.90
2019-04-21T18:42:31.071Z,33.10
2019-04-21T18:45:37.248Z,34.70
2019-04-21T18:47:58.522Z,35.10
2019-04-21T18:50:39.092Z,35.60
2019-04-21T18:53:12.063Z,37.20
2019-04-21T18:55:37.838Z,37.70
2019-04-21T18:58:00.992Z,38.60
2019-04-21T19:00:33.326Z,38.60
2019-04-21T19:03:00.209Z,39.30
2019-04-21T19:05:29.846Z,39.70
2019-04-21T19:08:14.736Z,39.90
2019-04-21T19:10:49.014Z,40.50
2019-04-21T19:16:03.219Z,41.40
2019-04-21T19:18:38.791Z,41.60
2019-04-21T19:20:51.816Z,41.90
2019-04-21T19:23:29.560Z,41.90
2019-04-21T19:25:46.607Z,42.30
2019-04-21T19:28:16.920Z,42.20
2019-04-21T19:31:02.478Z,43.40
2019-04-21T19:33:14.050Z,43.00
2019-04-21T19:35:31.904Z,43.10
2019-04-21T19:38:06.483Z,43.30
2019-04-21T19:40:48.681Z,43.70
2019-04-21T19:43:10.050Z,44.40
2019-04-21T19:45:45.100Z,45.20
2019-04-21T19:48:18.468Z,45.80
2019-04-21T19:50:50.302Z,47.10
2019-04-21T19:53:15.473Z,48.20
2019-04-21T19:55:31.992Z,49.70
2019-04-21T19:58:00.987Z,50.00
2019-04-21T20:00:30.559Z,51.00
2019-04-21T20:02:59.042Z,50.90
2019-04-21T20:05:36.107Z,50.50
2019-04-21T20:08:11.349Z,50.30
2019-04-21T20:10:48.551Z,50.60
2019-04-21T20:13:33.649Z,50.90
2019-04-21T20:15:51.082Z,51.20
2019-04-21T20:18:11.360Z,51.90
2019-04-21T20:20:28.994Z,51.50
2019-04-21T20:22:57.921Z,51.50
2019-04-21T20:25:28.925Z,51.40
2019-04-21T20:28:03.747Z,51.70
2019-04-21T20:30:42.672Z,52.60
2019-04-21T20:33:36.962Z,53.40
2019-04-21T20:35:53.345Z,53.60
2019-04-21T20:38:12.668Z,53.50
2019-04-21T20:40:40.280Z,53.80
2019-04-21T20:43:17.699Z,54.20
2019-04-21T20:45:46.063Z,54.00
2019-04-21T20:48:07.213Z,54.10
2019-04-21T20:50:41.921Z,54.50
2019-04-21T20:53:14.640Z,54.50
2019-04-21T20:55:42.982Z,54.40
2019-04-21T20:58:09.207Z,54.40
2019-04-21T21:01:01.885Z,54.20
2019-04-21T21:03:17.843Z,54.40
2019-04-21T21:05:42.490Z,54.80
2019-04-21T21:08:26.055Z,54.80
2019-04-21T21:10:45.836Z,54.60
2019-04-21T21:15:51.394Z,54.90
2019-04-21T21:18:26.263Z,55.80
2019-04-21T21:20:49.400Z,56.40
2019-04-21T21:23:11.913Z,56.10
2019-04-21T21:25:50.476Z,56.40
2019-04-21T21:28:11.311Z,56.50
2019-04-21T21:30:41.428Z,56.90
2019-04-21T21:33:21.712Z,57.20
2019-04-21T21:35:43.865Z,57.80
2019-04-21T21:38:19.746Z,57.90
2019-04-21T21:40:47.319Z,57.80
2019-04-21T21:43:07.055Z,57.60
2019-04-21T21:45:40.099Z,57.60
2019-04-21T21:48:20.507Z,57.80
2019-04-21T21:50:46.041Z,58.10
2019-04-21T21:53:08.336Z,58.90
2019-04-21T21:55:34.051Z,59.30
2019-04-21T21:58:04.395Z,59.50
2019-04-21T22:00:36.992Z,59.70
2019-04-21T22:03:10.525Z,60.70
2019-04-21T22:05:43.385Z,61.80
2019-04-21T22:08:04.708Z,62.40
2019-04-21T22:10:33.293Z,63.40
2019-04-21T22:13:08.315Z,65.00
2019-04-21T22:15:33.747Z,65.10
2019-04-21T22:18:36.302Z,66.30
2019-04-21T22:20:47.549Z,67.50
2019-04-21T22:23:09.847Z,69.00
2019-04-21T22:25:34.756Z,70.00
2019-04-21T22:28:02.343Z,70.80
2019-04-21T22:30:38.161Z,72.00
2019-04-21T22:33:06.939Z,73.10
2019-04-21T22:35:38.896Z,73.50
2019-04-21T22:38:14.988Z,73.40
2019-04-21T22:40:49.134Z,73.90
2019-04-21T22:43:11.561Z,73.80
2019-04-21T22:45:31.586Z,73.80
2019-04-21T22:48:08.709Z,73.80
2019-04-21T22:50:34.838Z,74.80
2019-04-21T22:53:07.510Z,77.40
2019-04-21T22:55:35.311Z,77.90
2019-04-21T22:58:05.481Z,76.80
2019-04-21T23:00:40.956Z,76.30
2019-04-21T23:03:10.631Z,75.90
2019-04-21T23:05:38.321Z,75.70
2019-04-21T23:08:07.148Z,75.70
2019-04-21T23:10:37.064Z,76.10
2019-04-21T23:13:11.253Z,76.70
2019-04-21T23:15:42.368Z,76.60
2019-04-21T23:18:23.487Z,77.00
2019-04-21T23:20:53.702Z,77.70
2019-04-21T23:23:34.486Z,77.70
2019-04-21T23:25:53.359Z,78.00
2019-04-21T23:28:20.899Z,78.40
2019-04-21T23:30:57.621Z,78.60
2019-04-21T23:33:10.933Z,78.80
2019-04-21T23:35:40.592Z,78.80
2019-04-21T23:38:08.665Z,79.00
2019-04-21T23:40:40.727Z,79.30
2019-04-21T23:43:13.350Z,79.80
2019-04-21T23:45:40.894Z,80.30
2019-04-21T23:48:18.470Z,81.40
2019-04-21T23:50:48.193Z,80.80
2019-04-21T23:53:07.744Z,81.60
2019-04-21T23:55:37.063Z,81.70
2019-04-21T23:58:11.429Z,82.20
